Time;durP1;ratioP1;P1;durP2;ratioP2;P2;SDS_P1;SDS_P2;PMS_P1;PMS_P2;Temp;Humidity;BMP_temperature;BMP_pressure;BME280_temperature;BME280_humidity;BME280_pressure;Samples;Min_cycle;Max_cycle;Signal;HPM_P1;HPM_P2
2023/04/04 00:02:25;;;;;;;5.80;1.17;;;;;;;2.38;81.04;101914.34;5104091;28;20050;-75
2023/04/04 00:04:50;;;;;;;6.88;1.80;;;;;;;2.47;80.66;101920.03;5104399;28;20035;-75
2023/04/04 00:07:15;;;;;;;4.38;1.38;;;;;;;2.43;80.60;101910.28;5104255;28;20382;-74
2023/04/04 00:09:41;;;;;;;4.85;1.15;;;;;;;2.44;80.82;101913.75;5104176;28;20532;-75
2023/04/04 00:12:06;;;;;;;2.30;1.05;;;;;;;2.39;80.72;101910.97;5104409;28;20520;-75
2023/04/04 00:14:31;;;;;;;4.25;1.00;;;;;;;2.39;81.19;101910.97;5103888;28;20039;-74
2023/04/04 00:16:57;;;;;;;7.53;1.50;;;;;;;2.41;80.69;101905.00;5104578;28;20097;-75
2023/04/04 00:19:23;;;;;;;6.30;1.38;;;;;;;2.42;80.78;101905.88;5103117;28;20036;-75
2023/04/04 00:21:49;;;;;;;6.28;1.88;;;;;;;2.42;80.83;101903.28;5103326;28;20390;-75
2023/04/04 00:24:14;;;;;;;4.90;1.08;;;;;;;2.41;80.70;101898.88;5101006;28;20050;-75
2023/04/04 00:26:39;;;;;;;4.07;1.17;;;;;;;2.30;81.06;101903.56;5103190;28;20032;-75
2023/04/04 00:29:05;;;;;;;5.63;1.35;;;;;;;2.31;81.05;101897.56;5086365;28;20035;-75
2023/04/04 00:31:31;;;;;;;5.68;1.27;;;;;;;2.36;80.63;101903.88;5083975;28;20400;-75
2023/04/04 00:33:56;;;;;;;5.07;1.30;;;;;;;2.37;80.81;101899.56;5084394;28;20046;-75
2023/04/04 00:36:22;;;;;;;5.75;1.20;;;;;;;2.27;81.13;101902.53;5104985;28;20031;-74
2023/04/04 00:38:47;;;;;;;6.22;1.23;;;;;;;2.18;81.86;101901.25;5083692;28;20115;-72
2023/04/04 00:41:13;;;;;;;4.18;1.35;;;;;;;2.16;82.23;101899.38;5105130;28;20115;-74
2023/04/04 00:43:39;;;;;;;6.10;1.10;;;;;;;2.19;82.08;101907.34;5102073;28;20120;-75
2023/04/04 00:46:06;;;;;;;4.80;1.30;;;;;;;2.19;81.88;101895.22;5105461;28;20076;-75
2023/04/04 00:48:32;;;;;;;6.50;1.20;;;;;;;2.08;82.85;101891.19;5063144;28;20086;-75
2023/04/04 00:50:57;;;;;;;4.38;0.95;;;;;;;2.04;83.28;101893.56;5101348;28;20036;-75
2023/04/04 00:53:23;;;;;;;5.30;1.60;;;;;;;2.02;83.38;101890.91;5083752;28;20077;-75
2023/04/04 00:55:48;;;;;;;6.35;1.50;;;;;;;1.98;83.69;101887.22;5101820;28;20521;-75
2023/04/04 00:58:14;;;;;;;6.00;1.20;;;;;;;1.97;83.03;101885.44;5086762;28;20640;-75
2023/04/04 01:00:39;;;;;;;3.53;1.20;;;;;;;1.96;83.51;101882.75;5100040;28;20039;-75
2023/04/04 01:03:06;;;;;;;4.55;1.52;;;;;;;1.94;84.21;101889.63;5084176;28;20031;-74
2023/04/04 01:05:32;;;;;;;8.10;1.38;;;;;;;1.98;84.11;101888.94;5082956;28;20039;-75
2023/04/04 01:07:57;;;;;;;4.60;1.30;;;;;;;1.98;83.68;101886.34;5086009;28;20126;-74
2023/04/04 01:10:23;;;;;;;5.40;1.25;;;;;;;2.00;84.00;101884.72;5083295;28;20016;-74
2023/04/04 01:12:48;;;;;;;5.70;1.63;;;;;;;1.97;83.31;101890.66;5085767;28;20079;-75
2023/04/04 01:15:15;;;;;;;6.32;1.33;;;;;;;1.95;84.16;101880.97;5084410;28;20070;-75
2023/04/04 01:17:42;;;;;;;5.63;1.40;;;;;;;1.97;83.91;101880.25;5085277;28;20039;-75
2023/04/04 01:20:13;;;;;;;5.53;1.40;;;;;;;1.89;84.24;101880.69;5084048;28;20067;-75
2023/04/04 01:22:45;;;;;;;3.88;1.20;;;;;;;1.93;84.57;101877.41;5080869;28;20024;-75
2023/04/04 01:25:12;;;;;;;5.75;1.60;;;;;;;1.94;84.34;101877.50;5104634;28;20039;-76
2023/04/04 01:27:41;;;;;;;7.63;1.60;;;;;;;1.93;84.32;101877.41;5082321;28;20036;-75
2023/04/04 01:30:13;;;;;;;4.80;1.27;;;;;;;1.95;83.93;101875.78;5079328;28;20089;-75
2023/04/04 01:32:42;;;;;;;4.90;1.42;;;;;;;1.86;83.94;101871.00;5087281;28;20506;-74
2023/04/04 01:35:29;;;;;;;7.18;1.65;;;;;;;1.78;84.50;101866.22;5084351;28;20101;-75
2023/04/04 01:38:29;;;;;;;3.95;1.23;;;;;;;1.77;84.79;101867.03;5063298;28;20122;-76
2023/04/04 01:41:06;;;;;;;3.58;1.45;;;;;;;1.74;84.62;101866.06;5058928;28;20073;-76
2023/04/04 01:43:33;;;;;;;6.38;1.63;;;;;;;1.67;84.72;101866.56;5075565;28;20032;-75
2023/04/04 01:46:00;;;;;;;8.98;1.75;;;;;;;1.65;85.60;101869.88;5075724;28;20047;-76
2023/04/04 01:48:26;;;;;;;6.72;1.30;;;;;;;1.63;85.97;101864.63;5085770;28;20489;-75
2023/04/04 01:50:55;;;;;;;7.32;2.17;;;;;;;1.63;86.32;101867.22;5081839;28;20037;-75
2023/04/04 01:53:22;;;;;;;6.43;1.40;;;;;;;1.70;85.96;101868.41;5073194;28;20035;-75
2023/04/04 01:55:47;;;;;;;4.85;1.27;;;;;;;1.75;85.11;101867.84;5083343;28;20093;-75
2023/04/04 01:58:15;;;;;;;9.15;1.65;;;;;;;1.75;85.01;101862.63;5084076;28;20032;-75
2023/04/04 02:00:40;;;;;;;4.10;1.27;;;;;;;1.71;85.28;101865.91;5083918;28;20507;-75
2023/04/04 02:03:06;;;;;;;6.15;1.27;;;;;;;1.73;85.44;101858.19;5084211;28;20063;-75
2023/04/04 02:05:31;;;;;;;3.08;1.15;;;;;;;1.73;85.36;101864.28;5102127;28;20039;-75
2023/04/04 02:07:57;;;;;;;4.38;1.10;;;;;;;1.68;85.44;101860.56;5083890;28;20055;-75
2023/04/04 02:10:32;;;;;;;7.97;1.58;;;;;;;1.68;85.38;101854.47;5087825;28;20030;-74
2023/04/04 02:12:58;;;;;;;8.82;1.83;;;;;;;1.67;85.58;101860.47;5065464;28;20414;-75
2023/04/04 02:15:24;;;;;;;5.85;1.13;;;;;;;1.66;85.57;101850.88;5085537;28;20478;-75
2023/04/04 02:17:49;;;;;;;5.60;1.65;;;;;;;1.56;86.02;101851.22;5099958;28;20111;-75
2023/04/04 02:20:18;;;;;;;6.03;1.50;;;;;;;1.53;86.00;101854.56;5075722;28;20027;-75
2023/04/04 02:22:52;;;;;;;6.10;1.60;;;;;;;1.46;86.59;101849.84;5081537;28;20089;-75
2023/04/04 02:25:19;;;;;;;6.13;1.77;;;;;;;1.43;86.63;101854.88;5083882;28;20063;-73
2023/04/04 02:27:44;;;;;;;7.15;1.67;;;;;;;1.40;86.68;101840.00;5083575;28;20478;-75
2023/04/04 02:30:11;;;;;;;6.70;1.60;;;;;;;1.29;86.99;101838.56;5101116;28;20035;-75
2023/04/04 02:32:37;;;;;;;6.90;1.60;;;;;;;1.21;87.24;101845.09;5066929;28;20161;-74
2023/04/04 02:35:05;;;;;;;4.68;1.42;;;;;;;1.11;87.90;101846.28;5084123;28;20112;-74
2023/04/04 02:37:30;;;;;;;5.10;1.48;;;;;;;1.08;88.13;101848.72;5100699;28;20083;-74
2023/04/04 02:39:56;;;;;;;5.15;1.70;;;;;;;1.09;87.73;101845.31;5084114;28;20024;-74
2023/04/04 02:42:22;;;;;;;7.22;1.45;;;;;;;1.05;88.20;101845.97;5084891;28;20038;-75
2023/04/04 02:44:48;;;;;;;5.13;1.40;;;;;;;1.06;88.89;101840.84;5081900;28;20118;-74
2023/04/04 02:47:16;;;;;;;4.82;1.40;;;;;;;1.07;88.61;101836.53;5085264;28;20439;-75
2023/04/04 02:49:42;;;;;;;7.60;1.40;;;;;;;1.09;88.75;101834.91;5081000;28;20032;-75
2023/04/04 02:52:07;;;;;;;6.75;1.90;;;;;;;1.09;88.47;101834.91;5078608;28;20409;-75
2023/04/04 02:54:36;;;;;;;6.28;1.90;;;;;;;1.09;89.29;101832.31;5081933;28;20028;-75
2023/04/04 02:57:03;;;;;;;6.00;1.40;;;;;;;1.11;88.83;101828.09;5084348;28;20038;-74
2023/04/04 02:59:29;;;;;;;8.57;2.05;;;;;;;1.11;88.89;101830.69;5081598;28;20038;-74
2023/04/04 03:01:54;;;;;;;7.15;1.80;;;;;;;1.09;88.69;101828.00;5095650;28;20031;-75
2023/04/04 03:04:20;;;;;;;5.95;1.80;;;;;;;1.10;88.70;101836.69;5089291;28;20027;-75
2023/04/04 03:06:47;;;;;;;6.25;1.83;;;;;;;1.08;88.59;101834.03;5082383;28;20035;-74
2023/04/04 03:09:13;;;;;;;6.60;1.48;;;;;;;1.11;88.60;101829.81;5083087;28;20035;-73
2023/04/04 03:11:38;;;;;;;4.35;1.70;;;;;;;1.13;88.60;101830.75;5079441;28;20032;-75
2023/04/04 03:14:04;;;;;;;5.35;1.45;;;;;;;1.13;88.57;101830.75;5083082;28;20043;-74
2023/04/04 03:16:36;;;;;;;6.27;1.40;;;;;;;1.09;88.72;101830.59;5083909;28;20031;-74
2023/04/04 03:19:01;;;;;;;10.88;1.60;;;;;;;1.13;88.54;101825.56;5081741;28;20092;-74
2023/04/04 03:21:27;;;;;;;5.28;1.50;;;;;;;1.11;88.98;101822.00;5083867;28;20122;-74
2023/04/04 03:23:55;;;;;;;7.00;1.52;;;;;;;1.11;88.77;101822.00;5081011;28;20119;-74
2023/04/04 03:26:20;;;;;;;5.65;1.63;;;;;;;1.16;88.79;101826.63;5099433;28;20126;-75
2023/04/04 03:28:46;;;;;;;7.25;1.70;;;;;;;1.13;88.22;101822.94;5084666;28;20031;-74
2023/04/04 03:31:12;;;;;;;6.45;1.73;;;;;;;1.07;88.38;101818.31;5084787;28;20101;-74
2023/04/04 03:33:41;;;;;;;4.68;1.73;;;;;;;1.14;88.03;101816.97;5081169;28;20040;-74
2023/04/04 03:36:13;;;;;;;7.35;1.30;;;;;;;1.06;87.37;101824.34;5096424;28;20028;-75
2023/04/04 03:38:39;;;;;;;5.38;1.88;;;;;;;0.91;88.38;101824.41;5105350;28;20542;-74
2023/04/04 03:41:06;;;;;;;4.55;1.55;;;;;;;0.91;88.47;101823.53;5085723;28;20043;-75
2023/04/04 03:43:32;;;;;;;9.07;1.90;;;;;;;0.88;88.84;101825.16;5082551;28;20062;-75
2023/04/04 03:46:05;;;;;;;6.15;1.98;;;;;;;0.83;89.15;101821.41;5104807;28;20063;-75
2023/04/04 03:48:32;;;;;;;5.45;1.88;;;;;;;0.74;89.44;101826.13;5103471;28;20504;-75
2023/04/04 03:50:58;;;;;;;7.43;1.70;;;;;;;0.65;89.52;101821.31;5085401;28;20028;-75
2023/04/04 03:53:27;;;;;;;5.05;1.55;;;;;;;0.63;90.10;101819.44;5076859;28;20047;-75
2023/04/04 03:55:55;;;;;;;7.53;1.73;;;;;;;0.58;90.42;101818.31;5098798;28;20485;-74
2023/04/04 03:58:21;;;;;;;8.00;1.55;;;;;;;0.52;89.93;101823.16;5087459;28;20034;-75
2023/04/04 04:00:47;;;;;;;8.43;1.80;;;;;;;0.46;89.71;101817.63;5083768;28;20024;-74
2023/04/04 04:03:12;;;;;;;5.97;1.47;;;;;;;0.39;89.95;101821.56;5091235;28;20076;-74
2023/04/04 04:05:38;;;;;;;6.63;1.90;;;;;;;0.34;90.53;101821.34;5085279;28;20122;-75
2023/04/04 04:08:04;;;;;;;5.38;1.60;;;;;;;0.30;90.55;101824.56;5100492;28;20031;-75
2023/04/04 04:10:29;;;;;;;7.97;1.77;;;;;;;0.23;91.45;101825.00;5085077;28;20036;-75
2023/04/04 04:12:54;;;;;;;9.15;1.80;;;;;;;0.24;91.50;101823.31;5104919;28;20669;-75
2023/04/04 04:15:20;;;;;;;8.60;1.95;;;;;;;0.20;91.00;101825.72;5078955;28;20397;-73
2023/04/04 04:17:46;;;;;;;4.63;1.40;;;;;;;0.09;92.80;101823.34;5086619;28;20125;-75
2023/04/04 04:20:12;;;;;;;6.30;1.80;;;;;;;-0.02;93.35;101823.63;5087020;28;20051;-75
2023/04/04 04:22:48;;;;;;;6.20;1.40;;;;;;;-0.05;93.71;101826.06;5083828;28;20063;-75
2023/04/04 04:25:15;;;;;;;10.65;3.35;;;;;;;-0.12;94.54;101821.31;5085795;28;20436;-75
2023/04/04 04:27:44;;;;;;;9.40;2.53;;;;;;;-0.10;94.04;101822.31;5079703;28;20036;-74
2023/04/04 04:30:09;;;;;;;6.40;1.77;;;;;;;-0.14;93.90;101833.28;5087085;28;20027;-75
2023/04/04 04:32:39;;;;;;;5.37;1.97;;;;;;;-0.18;93.98;101831.34;5081299;28;20031;-74
2023/04/04 04:35:06;;;;;;;7.77;1.63;;;;;;;-0.27;94.37;101821.31;5083425;28;20547;-74
2023/04/04 04:37:34;;;;;;;6.40;1.70;;;;;;;-0.29;94.00;101827.22;5080931;28;20110;-75
2023/04/04 04:40:00;;;;;;;4.43;1.37;;;;;;;-0.31;94.08;101831.44;5072549;28;20089;-75
2023/04/04 04:42:34;;;;;;;5.53;1.70;;;;;;;-0.30;93.84;101833.22;5082575;28;20023;-74
2023/04/04 04:45:02;;;;;;;6.73;2.20;;;;;;;-0.32;93.88;101827.03;5080909;28;20401;-74
2023/04/04 04:47:31;;;;;;;10.47;2.27;;;;;;;-0.35;94.71;101832.06;5084404;28;20028;-73
2023/04/04 04:49:57;;;;;;;8.53;2.70;;;;;;;-0.33;95.32;101835.63;5086718;28;20035;-73
2023/04/04 04:52:35;;;;;;;6.03;1.90;;;;;;;-0.36;94.75;101838.06;5083156;28;20028;-74
2023/04/04 04:55:01;;;;;;;6.13;1.67;;;;;;;-0.43;94.17;101835.91;5085669;28;20128;-75
2023/04/04 04:57:27;;;;;;;9.10;2.30;;;;;;;-0.51;94.67;101836.31;5082442;28;20515;-73
2023/04/04 04:59:54;;;;;;;7.97;2.93;;;;;;;-0.55;95.18;101839.56;5074353;28;20044;-75
2023/04/04 05:02:19;;;;;;;8.97;2.57;;;;;;;-0.51;96.96;101843.22;5087722;28;20063;-74
2023/04/04 05:04:45;;;;;;;9.13;3.67;;;;;;;-0.48;97.30;101841.69;5086798;28;20027;-74
2023/04/04 05:07:13;;;;;;;9.47;3.10;;;;;;;-0.39;97.51;101845.63;5088235;28;20035;-74
2023/04/04 05:09:41;;;;;;;6.47;2.23;;;;;;;-0.38;95.93;101843.13;5089247;28;20561;-73
2023/04/04 05:12:07;;;;;;;8.37;2.70;;;;;;;-0.36;94.59;101843.25;5085476;28;20032;-73
2023/04/04 05:14:40;;;;;;;7.07;2.07;;;;;;;-0.35;94.14;101851.09;5084589;28;20032;-75
2023/04/04 05:17:06;;;;;;;7.73;1.90;;;;;;;-0.35;94.34;101850.22;5084315;28;20139;-74
2023/04/04 05:19:32;;;;;;;10.17;2.97;;;;;;;-0.32;93.68;101852.97;5082457;28;20406;-75
2023/04/04 05:21:59;;;;;;;6.37;1.73;;;;;;;-0.31;93.58;101854.78;5083847;28;20493;-74
2023/04/04 05:24:33;;;;;;;6.23;2.20;;;;;;;-0.28;93.59;101865.34;5084322;28;20119;-74
2023/04/04 05:27:00;;;;;;;7.57;2.77;;;;;;;-0.28;93.59;101865.34;5081784;28;20028;-74
2023/04/04 05:29:30;;;;;;;8.40;2.40;;;;;;;-0.27;93.43;101868.00;5085952;28;20040;-74
2023/04/04 05:31:56;;;;;;;5.40;1.70;;;;;;;-0.25;92.55;101881.97;5081310;28;20070;-75
2023/04/04 05:34:22;;;;;;;8.00;2.10;;;;;;;-0.26;92.73;101874.13;5082752;28;20060;-74
2023/04/04 05:36:49;;;;;;;5.03;1.30;;;;;;;-0.23;92.58;101882.97;5085979;28;20038;-75
2023/04/04 05:39:15;;;;;;;5.67;2.30;;;;;;;-0.16;92.39;101881.59;5081953;28;20122;-74
2023/04/04 05:41:50;;;;;;;6.00;1.40;;;;;;;-0.11;91.52;101885.38;5079242;28;20040;-74
2023/04/04 05:44:17;;;;;;;7.37;1.40;;;;;;;-0.05;91.32;101883.16;5070684;28;20501;-75
2023/04/04 05:46:42;;;;;;;5.03;1.50;;;;;;;-0.01;91.20;101882.50;5100276;28;20032;-75
2023/04/04 05:49:08;;;;;;;8.77;2.73;;;;;;;0.02;91.13;101892.19;5081325;28;20436;-74
2023/04/04 05:51:37;;;;;;;3.27;1.20;;;;;;;0.08;91.01;101886.44;5081437;28;20031;-75
2023/04/04 05:54:07;;;;;;;6.80;1.90;;;;;;;0.15;90.56;101888.59;5086998;28;20031;-75
2023/04/04 05:56:33;;;;;;;6.23;1.87;;;;;;;0.21;90.68;101894.16;5065318;28;20027;-74
2023/04/04 05:58:59;;;;;;;7.03;1.90;;;;;;;0.22;89.90;101890.75;5103339;28;20035;-75
2023/04/04 06:01:28;;;;;;;7.63;2.10;;;;;;;0.27;89.93;101886.72;5083194;28;20032;-74
2023/04/04 06:03:55;;;;;;;4.17;1.57;;;;;;;0.32;89.28;101889.56;5085268;28;20435;-75
2023/04/04 06:06:26;;;;;;;7.77;1.60;;;;;;;0.36;89.05;101884.63;5083619;28;20504;-74
2023/04/04 06:08:51;;;;;;;8.63;2.70;;;;;;;0.42;89.55;101879.78;5084717;28;20066;-75
2023/04/04 06:11:17;;;;;;;9.88;2.80;;;;;;;0.52;89.77;101885.50;5083422;28;20106;-75
2023/04/04 06:13:42;;;;;;;7.65;3.25;;;;;;;0.60;89.27;101889.41;5083347;28;20440;-75
2023/04/04 06:16:13;;;;;;;7.68;2.67;;;;;;;0.59;88.17;101892.81;5084788;28;20028;-74
2023/04/04 06:18:38;;;;;;;8.20;1.85;;;;;;;0.62;88.19;101893.00;5102588;28;20031;-73
2023/04/04 06:21:04;;;;;;;5.60;2.25;;;;;;;0.64;87.41;101887.06;5084934;28;20054;-75
2023/04/04 06:23:30;;;;;;;6.55;2.50;;;;;;;0.62;86.28;101877.41;5096551;28;20053;-74
2023/04/04 06:25:55;;;;;;;4.60;1.67;;;;;;;0.67;86.71;101891.53;5087526;28;20114;-74
2023/04/04 06:28:22;;;;;;;7.28;2.33;;;;;;;0.75;86.28;101889.38;5082531;28;20123;-75
2023/04/04 06:30:49;;;;;;;4.38;1.45;;;;;;;0.77;84.67;101887.75;5081715;28;20034;-75
2023/04/04 06:33:18;;;;;;;5.88;1.73;;;;;;;0.83;84.52;101888.09;5081488;28;20081;-74
2023/04/04 06:35:46;;;;;;;6.03;1.77;;;;;;;0.88;84.61;101887.53;5087800;28;20123;-75
2023/04/04 06:38:13;;;;;;;5.10;1.40;;;;;;;0.94;84.15;101881.75;5082099;28;20028;-75
2023/04/04 06:40:38;;;;;;;7.45;2.53;;;;;;;1.04;84.00;101888.38;5084452;28;20511;-75
2023/04/04 06:43:04;;;;;;;5.53;2.20;;;;;;;1.12;83.53;101897.47;5076787;28;20563;-74
2023/04/04 06:45:37;;;;;;;5.07;1.60;;;;;;;1.22;83.07;101893.66;5100624;28;20036;-75
2023/04/04 06:48:05;;;;;;;6.03;1.70;;;;;;;1.25;80.99;101889.50;5094026;28;20031;-74
2023/04/04 06:50:32;;;;;;;4.88;2.00;;;;;;;1.37;81.37;101896.19;5100001;28;20433;-75
2023/04/04 06:53:02;;;;;;;5.60;2.00;;;;;;;1.49;80.82;101889.03;5084320;28;20114;-75
2023/04/04 06:55:28;;;;;;;4.10;1.33;;;;;;;1.53;80.54;101890.97;5095655;28;20036;-74
2023/04/04 06:57:54;;;;;;;5.85;1.70;;;;;;;1.62;80.00;101891.44;5103231;28;20032;-74
2023/04/04 07:00:20;;;;;;;7.50;2.08;;;;;;;1.69;79.17;101890.06;5101597;28;20027;-75
2023/04/04 07:02:45;;;;;;;8.38;1.50;;;;;;;1.73;77.88;101885.09;5099677;28;20032;-75
2023/04/04 07:05:12;;;;;;;4.75;1.10;;;;;;;1.83;77.09;101880.34;5105903;28;20413;-75
2023/04/04 07:07:38;;;;;;;3.90;1.42;;;;;;;1.93;76.76;101877.41;5086401;28;20457;-74
2023/04/04 07:10:03;;;;;;;3.78;1.27;;;;;;;2.04;75.81;101881.44;5104941;28;20119;-75
2023/04/04 07:12:29;;;;;;;3.78;1.00;;;;;;;2.12;75.33;101879.22;5106401;28;20123;-75
2023/04/04 07:14:55;;;;;;;4.85;1.50;;;;;;;2.16;75.01;101875.94;5104614;28;20067;-75
2023/04/04 07:17:20;;;;;;;4.55;1.25;;;;;;;2.20;74.25;101870.06;5106040;28;20070;-73
2023/04/04 07:19:45;;;;;;;4.53;1.75;;;;;;;2.27;73.60;101871.25;5104229;28;20068;-75
2023/04/04 07:22:12;;;;;;;7.07;1.40;;;;;;;2.36;73.52;101869.13;5103024;28;20063;-75
2023/04/04 07:24:37;;;;;;;4.45;1.08;;;;;;;2.41;72.47;101875.41;5102399;28;20556;-75
2023/04/04 07:27:02;;;;;;;3.90;1.17;;;;;;;2.48;71.76;101880.13;5103273;28;20120;-75
2023/04/04 07:29:28;;;;;;;6.82;1.60;;;;;;;2.50;69.83;101878.50;5103820;28;20126;-74
2023/04/04 07:31:53;;;;;;;5.07;1.30;;;;;;;2.58;71.17;101876.25;5105779;28;20111;-75
2023/04/04 07:34:19;;;;;;;4.32;1.30;;;;;;;2.59;67.90;101872.81;5105186;28;20043;-74
2023/04/04 07:36:44;;;;;;;4.80;1.10;;;;;;;2.54;68.13;101874.31;5084786;28;20138;-74
2023/04/04 07:39:10;;;;;;;3.30;0.90;;;;;;;2.61;67.35;101871.19;5103794;28;20080;-75
2023/04/04 07:41:35;;;;;;;5.93;1.30;;;;;;;2.68;66.81;101868.06;5104479;28;20032;-74
2023/04/04 07:44:00;;;;;;;4.95;1.00;;;;;;;2.71;66.39;101862.09;5105135;28;20043;-74
2023/04/04 07:46:28;;;;;;;3.70;0.88;;;;;;;2.69;63.77;101863.72;5096090;28;20034;-74
2023/04/04 07:48:54;;;;;;;2.05;0.80;;;;;;;2.78;63.23;101864.16;5105872;28;20044;-75
2023/04/04 07:51:27;;;;;;;5.63;1.38;;;;;;;2.87;64.82;101858.47;5086354;28;20027;-75
2023/04/04 07:53:53;;;;;;;3.45;1.15;;;;;;;3.02;63.58;101859.19;5084132;28;20035;-74
2023/04/04 07:56:18;;;;;;;3.10;1.50;;;;;;;3.06;63.18;101856.75;5081133;28;20032;-74
2023/04/04 07:58:43;;;;;;;3.78;1.33;;;;;;;3.17;64.08;101858.97;5100910;28;20032;-74
2023/04/04 08:01:08;;;;;;;4.10;1.15;;;;;;;3.30;63.64;101861.31;5105033;28;20433;-73
2023/04/04 08:03:34;;;;;;;4.63;0.90;;;;;;;3.28;61.51;101857.75;5103638;28;20497;-74
2023/04/04 08:05:59;;;;;;;3.67;1.00;;;;;;;3.32;61.52;101859.66;5102176;28;20563;-74
2023/04/04 08:08:26;;;;;;;2.80;0.95;;;;;;;3.30;60.26;101856.09;5105692;28;20031;-74
2023/04/04 08:10:51;;;;;;;3.72;0.70;;;;;;;3.33;61.38;101855.34;5102269;28;20044;-74
2023/04/04 08:13:16;;;;;;;6.10;1.80;;;;;;;3.45;61.10;101851.56;5103031;28;20042;-74
2023/04/04 08:15:42;;;;;;;2.25;0.85;;;;;;;3.76;61.29;101850.28;5104918;28;20044;-74
2023/04/04 08:18:08;;;;;;;4.35;1.00;;;;;;;3.98;58.48;101845.94;5096683;28;20386;-74
2023/04/04 08:20:34;;;;;;;3.72;1.27;;;;;;;4.00;59.84;101852.13;5101495;28;20028;-73
2023/04/04 08:22:59;;;;;;;3.40;1.13;;;;;;;4.10;60.23;101846.47;5103306;28;20047;-73
2023/04/04 08:25:25;;;;;;;7.45;1.92;;;;;;;4.08;58.33;101835.06;5100100;28;20032;-74
2023/04/04 08:27:50;;;;;;;2.67;0.80;;;;;;;4.07;58.54;101834.16;5103040;28;20031;-73
2023/04/04 08:30:15;;;;;;;4.20;1.00;;;;;;;4.07;54.25;101839.38;5101181;28;20043;-73
2023/04/04 08:32:43;;;;;;;2.35;0.60;;;;;;;3.96;50.42;101840.69;5101254;28;20111;-74
2023/04/04 08:35:08;;;;;;;5.05;1.05;;;;;;;3.72;49.24;101827.44;5102317;28;20498;-73
2023/04/04 08:37:37;;;;;;;3.88;0.80;;;;;;;3.73;52.58;101827.53;5093028;28;20042;-73
2023/04/04 08:40:03;;;;;;;2.72;0.70;;;;;;;3.77;52.84;101827.66;5102286;28;20032;-74
2023/04/04 08:42:32;;;;;;;3.90;0.80;;;;;;;3.74;50.23;101831.91;5096255;28;20039;-74
2023/04/04 08:45:00;;;;;;;4.90;1.52;;;;;;;3.90;50.89;101835.19;5096664;28;20046;-74
2023/04/04 08:47:29;;;;;;;2.55;0.75;;;;;;;4.03;48.82;101828.75;5100011;28;20040;-73
2023/04/04 08:49:55;;;;;;;3.50;0.70;;;;;;;3.97;51.43;101834.63;5097432;28;20115;-73
2023/04/04 08:52:22;;;;;;;3.05;0.80;;;;;;;4.20;52.04;101824.22;5102699;28;20176;-73
2023/04/04 08:54:49;;;;;;;2.15;0.60;;;;;;;4.24;45.99;101832.22;5096685;28;20074;-74
2023/04/04 08:57:15;;;;;;;1.92;0.43;;;;;;;4.36;48.45;101822.28;5104249;28;20053;-73
2023/04/04 08:59:41;;;;;;;4.07;0.55;;;;;;;4.51;48.23;101827.22;5101815;28;20044;-74
2023/04/04 09:02:09;;;;;;;1.95;0.52;;;;;;;4.66;47.68;101832.13;5101095;28;20115;-74
2023/04/04 09:04:35;;;;;;;4.10;0.68;;;;;;;4.75;48.49;101816.81;5102914;28;20035;-73
2023/04/04 09:07:02;;;;;;;2.58;0.50;;;;;;;4.91;48.56;101822.63;5103195;28;20035;-73
2023/04/04 09:09:31;;;;;;;3.80;0.70;;;;;;;5.05;48.28;101818.78;5084478;28;20147;-74
2023/04/04 09:11:59;;;;;;;2.17;0.57;;;;;;;5.14;47.88;101823.50;5101632;28;20679;-74
2023/04/04 09:14:26;;;;;;;3.20;0.70;;;;;;;5.13;47.50;101819.06;5103540;28;20114;-73
2023/04/04 09:16:52;;;;;;;2.10;0.80;;;;;;;5.27;47.62;101823.97;5086473;28;20040;-73
2023/04/04 09:19:17;;;;;;;5.68;1.48;;;;;;;5.61;48.76;101817.31;5100860;28;20055;-73
2023/04/04 09:21:46;;;;;;;2.47;0.73;;;;;;;5.84;47.93;101817.19;5097755;28;20483;-73
2023/04/04 09:24:12;;;;;;;3.17;0.60;;;;;;;6.10;47.73;101819.00;5098685;28;20152;-74
2023/04/04 09:26:48;;;;;;;3.00;1.20;;;;;;;6.04;45.41;101823.16;5100451;28;20127;-73
2023/04/04 09:29:16;;;;;;;2.80;0.70;;;;;;;5.79;44.76;101814.44;5102187;28;20088;-74
2023/04/04 09:31:45;;;;;;;2.65;0.82;;;;;;;5.55;45.00;101827.56;5103771;28;20359;-74
2023/04/04 09:34:12;;;;;;;2.38;0.70;;;;;;;5.39;43.78;101823.50;5102324;28;20122;-74
2023/04/04 09:36:38;;;;;;;3.42;0.90;;;;;;;5.39;44.44;101817.41;5103628;28;20031;-74
2023/04/04 09:39:03;;;;;;;3.33;0.98;;;;;;;5.39;44.73;101822.63;5096023;28;20077;-74
2023/04/04 09:41:29;;;;;;;3.28;0.80;;;;;;;5.57;45.52;101818.03;5100775;28;20031;-74
2023/04/04 09:43:56;;;;;;;2.00;0.60;;;;;;;5.71;45.06;101822.03;5097403;28;20027;-74
2023/04/04 09:46:22;;;;;;;4.13;1.48;;;;;;;5.84;44.46;101827.69;5101633;28;20047;-74
2023/04/04 09:48:51;;;;;;;4.90;1.25;;;;;;;5.95;42.72;101821.13;5100162;28;20494;-74
2023/04/04 09:51:17;;;;;;;2.97;0.85;;;;;;;5.64;41.66;101820.03;5101210;28;20063;-74
2023/04/04 09:53:47;;;;;;;6.40;0.82;;;;;;;5.64;43.65;101820.03;5101390;28;20094;-74
2023/04/04 09:56:12;;;;;;;3.35;1.08;;;;;;;5.85;43.56;101824.25;5102715;28;20042;-74
2023/04/04 09:58:39;;;;;;;4.43;1.20;;;;;;;5.47;46.75;101815.94;5088489;28;20044;-74
2023/04/04 10:01:08;;;;;;;5.68;1.23;;;;;;;5.57;46.48;101827.63;5097397;28;20547;-75
2023/04/04 10:03:35;;;;;;;3.55;1.00;;;;;;;5.15;45.22;101839.22;5118056;22;20048;-78
2023/04/04 10:06:04;;;;;;;4.00;0.95;;;;;;;5.00;47.38;101829.09;5072150;28;20048;-77
2023/04/04 10:08:31;;;;;;;3.30;1.40;;;;;;;4.98;47.05;101840.34;5072527;28;20071;-78
2023/04/04 10:11:01;;;;;;;5.00;1.15;;;;;;;4.73;46.53;101836.78;5054501;28;20081;-77
2023/04/04 10:13:29;;;;;;;2.78;1.23;;;;;;;4.49;46.11;101828.00;5070121;28;20052;-77
2023/04/04 10:15:57;;;;;;;3.30;0.98;;;;;;;4.53;46.76;101829.88;5079069;28;20040;-79
2023/04/04 10:18:24;;;;;;;4.25;0.90;;;;;;;4.62;45.88;101825.03;5079424;28;20039;-77
2023/04/04 10:20:50;;;;;;;1.88;0.68;;;;;;;4.42;47.05;101826.84;5062016;28;20039;-79
2023/04/04 10:23:16;;;;;;;5.60;0.93;;;;;;;4.55;46.81;101826.50;5079379;28;20040;-78
2023/04/04 10:25:42;;;;;;;2.22;0.65;;;;;;;4.71;47.08;101820.13;5081114;28;20032;-79
2023/04/04 10:28:07;;;;;;;4.40;0.88;;;;;;;5.03;45.66;101817.84;5081746;28;20110;-78
2023/04/04 10:30:43;;;;;;;3.97;1.10;;;;;;;4.86;42.98;101818.94;5080463;28;20036;-79
2023/04/04 10:33:15;;;;;;;1.40;0.65;;;;;;;4.78;43.42;101816.94;5077079;28;20437;-78
2023/04/04 10:35:44;;;;;;;2.83;0.65;;;;;;;4.99;41.39;101821.19;5074025;28;20043;-78
2023/04/04 10:38:12;;;;;;;2.80;0.63;;;;;;;5.08;42.39;101804.94;5078744;28;20040;-78
2023/04/04 10:40:42;;;;;;;3.72;0.85;;;;;;;5.39;40.72;101812.16;5077064;28;20036;-78
2023/04/04 10:43:11;;;;;;;4.18;1.10;;;;;;;5.77;42.44;101804.75;5075914;28;20036;-79
2023/04/04 10:45:41;;;;;;;2.03;0.70;;;;;;;6.18;42.67;101793.03;5080881;28;20051;-79
2023/04/04 10:48:07;;;;;;;4.05;0.90;;;;;;;6.52;42.33;101783.59;5073176;28;20032;-79
2023/04/04 10:50:35;;;;;;;2.80;0.57;;;;;;;6.72;41.96;101787.69;5064322;28;20036;-79
2023/04/04 10:53:03;;;;;;;2.97;0.90;;;;;;;7.07;41.03;101792.19;5059738;28;20448;-78
2023/04/04 10:55:30;;;;;;;3.60;0.85;;;;;;;6.95;41.23;101779.63;5080868;28;20040;-79
2023/04/04 10:57:56;;;;;;;4.15;1.10;;;;;;;6.89;40.57;101780.34;5060409;28;20043;-79
2023/04/04 11:00:23;;;;;;;2.95;1.00;;;;;;;6.06;40.50;101779.53;5064100;28;20088;-78
2023/04/04 11:02:55;;;;;;;2.72;0.60;;;;;;;5.62;42.22;101777.19;5078489;28;20032;-79
2023/04/04 11:06:00;;;;;;;3.92;0.80;;;;;;;5.58;40.16;101777.94;5081966;28;20180;-78
2023/04/04 11:08:26;;;;;;;2.67;0.68;;;;;;;5.60;42.34;101773.63;5080486;28;20040;-78
2023/04/04 11:10:53;;;;;;;2.65;0.55;;;;;;;6.01;42.10;101763.66;5064250;28;20032;-78
2023/04/04 11:13:22;;;;;;;3.50;0.75;;;;;;;6.20;40.94;101754.66;5081398;28;20391;-78
2023/04/04 11:15:59;;;;;;;2.33;0.77;;;;;;;6.40;39.12;101757.91;5060546;28;20056;-78
2023/04/04 11:18:30;;;;;;;2.28;0.52;;;;;;;6.32;36.46;101756.78;5081595;28;20056;-78
2023/04/04 11:20:55;;;;;;;2.35;0.70;;;;;;;6.11;38.31;101752.63;5081802;28;20063;-78
2023/04/04 11:23:21;;;;;;;3.55;0.80;;;;;;;6.20;38.66;101761.63;5082880;28;20418;-79
2023/04/04 11:25:54;;;;;;;2.63;1.00;;;;;;;5.96;38.33;101757.38;5081817;28;20040;-78
2023/04/04 11:28:32;;;;;;;3.03;0.82;;;;;;;5.63;38.42;101747.56;5078000;28;20059;-78
2023/04/04 11:31:16;;;;;;;6.50;1.33;;;;;;;5.78;39.41;101749.78;5080262;28;20044;-78
2023/04/04 11:34:05;;;;;;;2.15;0.60;;;;;;;6.25;37.40;101747.81;5081246;28;20044;-78